Wednesday, November 26, 2014
21:29 UTC
  |  Log In   |  Register Free
Airport Search:

Coleman Municipal Airport
(KCOM)

Coleman Municipal Airport Diagram
No Airport Diagram Available

FAA data valid effective November 13, 2014 - January 08, 2015 (unless otherwise noted).

 
 
 
 
 
 
 
 
 
 
 
 
 
 

Current Aviation Weather for Coleman Municipal Airport (KCOM)

The most recent METAR observation for KCOM was updated at: 2115
METAR Summary (Translated METAR)
KCOM
262055Z AUTO 01008KT 10SM CLR 17/02 A3022 RMK AO2 T01690023
KBWD
262055Z AUTO 35009KT 10SM CLR 17/M01 A3021 RMK AO2
(23 nm SE from KCOM)
KABI
262052Z 36011KT 10SM CLR 16/01 A3023 RMK AO2 SLP230 T01560006 55008
(37 nm NW from KCOM)
TAF Summary (Translated TAF)
KABI
(37 nm NW from KCOM)
261724Z 2618/2718 36011KT P6SM SKC FM270000 06005KT P6SM SKC FM271400 15008KT P6SM SKC
  Airport Weather Conditions for KCOM

 Current Weather at COM
62° F
Fair
North winds at 11.5 mph
COM NOAA Radar

Pressure: 30.21 in
Humidity: 38%
Wind: North at 11.5 MPH (10 KT)
Dew Point: 36.1°F
Visibility: 10.00 mi


Airport Weather Forecast for KCOM

Translated METAR and TAF for KCOM
Translated METAR for KCOM (2124 UTC 26 November 2014)
found at http://aviationweather.gov/adds/metars/
 
METAR text: KCOM 262115Z AUTO 02007KT 10SM CLR 17/03 A3023 RMK AO2 T01690025
Conditions at: KCOM (COLEMAN MUNI , TX, US) observed 2115 UTC 26 November 2014
Temperature: 16.9°C (62°F)
Dewpoint: 2.5°C (36°F) [RH = 38%]
Pressure (altimeter): 30.23 inches Hg (1023.8 mb)
Winds: from the NNE (20 degrees) at 8 MPH (7 knots; 3.6 m/s)
Visibility: 10 or more miles (16+ km)
Ceiling: at least 12,000 feet AGL
Clouds: sky clear below 12,000 feet AGL
Weather: automated observation with no human augmentation;
there may or may not be significant weather present at this time
Translated TAF for KCOM

There is no translated TAF available for this airport

Find All Airport Services Find A Hotel Find A Rental Car Find A Golf Course Find A Restaurant $100 Hamburger



FBO's on the Field
FBO Company Facility Photos Services Transportation Aviation Fuel Prices: Prices include tax
Catering Weather Repair Courtesy Rental Type 100LL JetA JetA+ MOGAS 8087
 
Add another FBO Facility Photos Catering Weather Repair Courtesy Rental Type 100LL JetA JetA+ MOGAS 8087
Services Transportation Aviation Fuel Prices: Prices include tax
There are no FBO's currently reporting fuel at COM. List your FBO now


model-print
model-print
model-print
model-print